createdAt,value
2022-12-24T00:01:35.951Z,5.53
2022-12-24T00:04:04.151Z,5.45
2022-12-24T00:06:32.186Z,5.41
2022-12-24T00:09:00.574Z,5.39
2022-12-24T00:11:31.186Z,5.41
2022-12-24T00:13:59.275Z,5.44
2022-12-24T00:16:27.560Z,5.46
2022-12-24T00:18:57.790Z,5.47
2022-12-24T00:21:25.916Z,5.50
2022-12-24T00:23:54.352Z,5.51
2022-12-24T00:26:22.772Z,5.47
2022-12-24T00:28:52.405Z,5.47
2022-12-24T00:31:21.094Z,5.48
2022-12-24T00:33:49.577Z,5.52
2022-12-24T00:36:18.849Z,5.51
2022-12-24T00:38:47.653Z,5.54
2022-12-24T00:41:26.144Z,5.55
2022-12-24T00:43:57.584Z,5.57
2022-12-24T00:46:27.116Z,5.52
2022-12-24T00:48:55.714Z,5.50
2022-12-24T00:51:25.074Z,5.50
2022-12-24T00:53:57.145Z,5.47
2022-12-24T00:56:25.695Z,5.48
2022-12-24T00:58:55.426Z,5.48
2022-12-24T01:01:24.604Z,5.49
2022-12-24T01:04:12.961Z,5.45
2022-12-24T01:06:40.164Z,5.46
2022-12-24T01:09:08.427Z,5.44
2022-12-24T01:11:36.463Z,5.44
2022-12-24T01:14:06.071Z,5.41
2022-12-24T01:16:34.703Z,5.43
2022-12-24T01:19:03.661Z,5.41
2022-12-24T01:21:31.759Z,5.39
2022-12-24T01:23:59.879Z,5.37
2022-12-24T01:26:28.001Z,5.35
2022-12-24T01:28:57.582Z,5.33
2022-12-24T01:31:27.241Z,5.29
2022-12-24T01:33:55.522Z,5.28
2022-12-24T01:36:23.723Z,5.23
2022-12-24T01:38:52.246Z,5.23
2022-12-24T01:41:44.322Z,5.26
2022-12-24T01:44:27.148Z,5.28
2022-12-24T01:47:10.546Z,5.24
2022-12-24T01:49:42.440Z,5.24
2022-12-24T01:52:16.629Z,5.24
2022-12-24T01:54:49.802Z,5.24
2022-12-24T01:57:22.389Z,5.23
2022-12-24T01:59:58.002Z,5.20
2022-12-24T02:02:28.852Z,5.24
2022-12-24T02:05:03.238Z,5.22
2022-12-24T02:07:32.338Z,5.23
2022-12-24T02:10:03.112Z,5.24
2022-12-24T02:12:34.141Z,5.23
2022-12-24T02:15:03.858Z,5.23
2022-12-24T02:17:41.087Z,5.22
2022-12-24T02:20:30.396Z,5.20
2022-12-24T02:23:35.624Z,5.17
2022-12-24T02:26:16.833Z,5.13
2022-12-24T02:29:04.938Z,5.13
2022-12-24T02:31:41.377Z,5.11
2022-12-24T02:34:18.357Z,5.13
2022-12-24T02:36:51.740Z,5.12
2022-12-24T02:39:25.247Z,5.11
2022-12-24T02:42:09.419Z,5.07
2022-12-24T02:44:43.125Z,5.08
2022-12-24T02:47:23.698Z,5.04
2022-12-24T02:49:52.287Z,5.01
2022-12-24T02:52:31.492Z,5.00
2022-12-24T02:55:02.965Z,4.99
2022-12-24T02:57:45.107Z,5.00
2022-12-24T03:00:17.355Z,4.99
2022-12-24T03:03:08.775Z,5.01
2022-12-24T03:05:55.218Z,5.07
2022-12-24T03:08:33.834Z,5.07
2022-12-24T03:11:09.578Z,5.03
2022-12-24T03:13:38.510Z,5.02
2022-12-24T03:16:11.375Z,4.98
2022-12-24T03:18:45.783Z,4.94
2022-12-24T03:21:19.317Z,4.89
2022-12-24T03:23:48.676Z,4.88
2022-12-24T03:26:19.324Z,4.84
2022-12-24T03:28:48.534Z,4.84
2022-12-24T03:31:18.826Z,4.83
2022-12-24T03:33:52.187Z,4.81
2022-12-24T03:36:22.140Z,4.79
2022-12-24T03:38:51.304Z,4.79
2022-12-24T03:41:20.149Z,4.86
2022-12-24T03:43:48.836Z,4.88
2022-12-24T03:46:17.348Z,4.94
2022-12-24T03:48:50.140Z,4.93
2022-12-24T03:51:21.086Z,4.94
2022-12-24T03:53:53.584Z,4.94
2022-12-24T03:56:26.803Z,4.99
2022-12-24T03:58:57.822Z,4.94
2022-12-24T04:01:26.297Z,4.92
2022-12-24T04:03:56.209Z,4.88
2022-12-24T04:06:24.501Z,4.83
2022-12-24T04:08:52.836Z,4.86
2022-12-24T04:11:21.760Z,4.88
2022-12-24T04:13:50.445Z,4.86
2022-12-24T04:16:21.794Z,4.88
2022-12-24T04:18:50.313Z,4.88
2022-12-24T04:21:19.976Z,4.86
2022-12-24T04:23:48.526Z,4.83
2022-12-24T04:26:17.007Z,4.78
2022-12-24T04:28:45.451Z,4.76
2022-12-24T04:31:15.515Z,4.72
2022-12-24T04:33:44.208Z,4.77
2022-12-24T04:36:14.071Z,4.83
2022-12-24T04:38:43.773Z,4.85
2022-12-24T04:41:20.754Z,4.85
2022-12-24T04:43:53.994Z,4.97
2022-12-24T04:46:24.388Z,4.99
2022-12-24T04:48:54.252Z,5.03
2022-12-24T04:51:23.046Z,5.08
2022-12-24T04:53:53.316Z,5.06
2022-12-24T04:56:22.272Z,5.09
2022-12-24T04:58:51.210Z,5.09
2022-12-24T05:01:22.277Z,5.07
2022-12-24T05:03:51.176Z,5.09
2022-12-24T05:06:21.145Z,5.07
2022-12-24T05:08:49.911Z,5.04
2022-12-24T05:11:20.242Z,5.09
2022-12-24T05:13:48.598Z,5.11
2022-12-24T05:16:17.909Z,5.14
2022-12-24T05:18:46.410Z,5.18
2022-12-24T05:21:18.026Z,5.18
2022-12-24T05:24:03.721Z,5.14
2022-12-24T05:26:39.115Z,5.11
2022-12-24T05:29:08.344Z,5.11
2022-12-24T05:31:37.224Z,5.19
2022-12-24T05:34:05.228Z,5.20
2022-12-24T05:36:33.845Z,5.22
2022-12-24T05:39:02.347Z,5.21
2022-12-24T05:41:30.818Z,5.19
2022-12-24T05:44:00.364Z,5.16
2022-12-24T05:46:28.872Z,5.24
2022-12-24T05:48:56.997Z,5.21
2022-12-24T05:51:25.665Z,5.14
2022-12-24T05:53:53.832Z,5.10
2022-12-24T05:56:24.075Z,5.13
2022-12-24T05:58:53.586Z,5.15
2022-12-24T06:01:24.748Z,5.14
2022-12-24T06:03:54.736Z,5.13
2022-12-24T06:06:25.525Z,5.10
2022-12-24T06:08:55.714Z,5.12
2022-12-24T06:11:25.378Z,5.19
2022-12-24T06:13:54.157Z,5.25
2022-12-24T06:16:25.670Z,5.28
2022-12-24T06:18:54.646Z,5.28
2022-12-24T06:21:22.693Z,5.30
2022-12-24T06:23:50.823Z,5.39
2022-12-24T06:26:21.602Z,5.32
2022-12-24T06:28:50.697Z,5.26
2022-12-24T06:31:21.157Z,5.25
2022-12-24T06:33:51.703Z,5.24
2022-12-24T06:36:22.416Z,5.24
2022-12-24T06:38:50.924Z,5.16
2022-12-24T06:41:20.107Z,5.17
2022-12-24T06:43:49.275Z,5.20
2022-12-24T06:46:19.034Z,5.23
2022-12-24T06:48:47.599Z,5.20
2022-12-24T06:51:19.982Z,5.21
2022-12-24T06:53:50.653Z,5.39
2022-12-24T06:56:19.364Z,5.39
2022-12-24T06:58:47.434Z,5.51
2022-12-24T07:01:18.158Z,5.55
2022-12-24T07:03:46.997Z,5.60
2022-12-24T07:06:20.840Z,5.81
2022-12-24T07:08:50.347Z,5.82
2022-12-24T07:11:18.486Z,5.75
2022-12-24T07:13:48.170Z,5.72
2022-12-24T07:16:16.811Z,5.67
2022-12-24T07:18:45.018Z,5.60
2022-12-24T07:21:13.052Z,5.62
2022-12-24T07:23:42.756Z,5.51
2022-12-24T07:26:12.685Z,5.46
2022-12-24T07:28:41.363Z,5.40
2022-12-24T07:31:09.505Z,5.31
2022-12-24T07:33:37.732Z,5.26
2022-12-24T07:36:10.142Z,5.24
2022-12-24T07:38:46.446Z,5.26
2022-12-24T07:41:15.063Z,5.22
2022-12-24T07:43:43.133Z,5.13
2022-12-24T07:46:11.326Z,5.00
2022-12-24T07:48:39.729Z,4.91
2022-12-24T07:51:08.117Z,4.83
2022-12-24T07:53:36.221Z,4.78
2022-12-24T07:56:12.444Z,4.72
2022-12-24T07:58:41.313Z,4.64
2022-12-24T08:01:10.154Z,4.56
2022-12-24T08:03:38.681Z,4.54
2022-12-24T08:06:07.558Z,4.52
2022-12-24T08:08:35.682Z,4.52
2022-12-24T08:11:07.084Z,4.52
2022-12-24T08:13:35.304Z,4.54
2022-12-24T08:16:04.485Z,4.56
2022-12-24T08:18:32.884Z,4.58
2022-12-24T08:21:00.976Z,4.61
2022-12-24T08:23:29.261Z,4.59
2022-12-24T08:25:57.676Z,4.58
2022-12-24T08:28:27.152Z,4.59
2022-12-24T08:30:55.313Z,4.59
2022-12-24T08:33:23.449Z,4.55
2022-12-24T08:35:52.766Z,4.51
2022-12-24T08:38:21.919Z,4.49
2022-12-24T08:40:50.647Z,4.48
2022-12-24T08:43:19.225Z,4.47
2022-12-24T08:45:49.401Z,4.48
2022-12-24T08:48:17.339Z,4.56
2022-12-24T08:50:45.456Z,4.62
2022-12-24T08:53:15.314Z,4.65
2022-12-24T08:55:43.577Z,4.73
2022-12-24T08:58:11.667Z,4.75
2022-12-24T09:00:39.804Z,4.74
2022-12-24T09:03:09.443Z,4.83
2022-12-24T09:05:41.927Z,4.92
2022-12-24T09:08:16.591Z,5.03
2022-12-24T09:10:46.061Z,5.20
2022-12-24T09:13:16.977Z,5.43
2022-12-24T09:15:56.037Z,5.64
2022-12-24T09:18:27.239Z,5.82
2022-12-24T09:21:01.597Z,5.94
2022-12-24T09:23:31.573Z,5.94
2022-12-24T09:25:59.932Z,5.93
2022-12-24T09:28:30.353Z,5.92
2022-12-24T09:31:04.927Z,5.93
2022-12-24T09:33:37.892Z,5.97
2022-12-24T09:36:10.362Z,6.06
2022-12-24T09:38:40.364Z,6.13
2022-12-24T09:41:18.140Z,6.19
2022-12-24T09:43:50.942Z,6.23
2022-12-24T09:46:26.165Z,6.28
2022-12-24T09:49:01.872Z,6.38
2022-12-24T09:51:35.619Z,6.51
2022-12-24T09:54:11.537Z,6.63
2022-12-24T09:56:41.715Z,6.70
2022-12-24T09:59:12.591Z,6.78
2022-12-24T10:01:40.719Z,6.80
2022-12-24T10:04:14.614Z,6.80
2022-12-24T10:06:52.261Z,6.82
2022-12-24T10:09:32.381Z,6.90
2022-12-24T10:12:06.066Z,7.06
2022-12-24T10:14:54.675Z,7.20
2022-12-24T10:17:37.656Z,7.37
2022-12-24T10:20:34.909Z,7.56
2022-12-24T10:23:13.029Z,7.67
2022-12-24T10:25:49.148Z,7.69
2022-12-24T10:28:20.077Z,7.70
2022-12-24T10:30:53.094Z,7.73
2022-12-24T10:33:30.999Z,7.77
2022-12-24T10:36:01.137Z,7.84
2022-12-24T10:38:33.242Z,7.90
2022-12-24T10:41:02.571Z,7.99
2022-12-24T10:43:31.626Z,8.09
2022-12-24T10:46:02.975Z,8.16
2022-12-24T10:48:37.753Z,8.22
2022-12-24T10:51:16.240Z,8.22
2022-12-24T10:53:51.232Z,8.26
2022-12-24T10:56:20.959Z,8.29
2022-12-24T10:58:53.854Z,8.32
2022-12-24T11:01:43.084Z,8.36
2022-12-24T11:04:18.329Z,8.44
2022-12-24T11:07:01.789Z,8.59
2022-12-24T11:09:34.357Z,8.78
2022-12-24T11:12:09.668Z,9.04
2022-12-24T11:14:40.443Z,9.30
2022-12-24T11:17:23.417Z,9.50
2022-12-24T11:19:52.449Z,9.65
2022-12-24T11:22:25.904Z,9.75
2022-12-24T11:25:04.090Z,9.91
2022-12-24T11:27:40.417Z,10.11
2022-12-24T11:30:21.787Z,10.25
2022-12-24T11:32:52.263Z,10.29
2022-12-24T11:35:26.705Z,10.28
2022-12-24T11:38:12.527Z,10.21
2022-12-24T11:40:43.742Z,10.16
2022-12-24T11:43:17.680Z,10.11
2022-12-24T11:45:50.941Z,10.04
2022-12-24T11:48:35.607Z,10.02
2022-12-24T11:51:06.757Z,9.99
2022-12-24T11:53:43.248Z,10.01
2022-12-24T11:56:28.966Z,10.02
2022-12-24T11:59:03.927Z,10.02
2022-12-24T12:01:38.627Z,10.02
2022-12-24T12:04:12.656Z,10.00
2022-12-24T12:06:48.089Z,9.99
2022-12-24T12:09:22.022Z,9.96
2022-12-24T12:11:54.866Z,9.86
2022-12-24T12:14:29.663Z,9.75
2022-12-24T12:17:04.078Z,9.68
2022-12-24T12:19:39.537Z,9.58
2022-12-24T12:22:19.340Z,9.50
2022-12-24T12:24:54.368Z,9.41
2022-12-24T12:27:32.542Z,9.39
2022-12-24T12:30:04.185Z,9.38
2022-12-24T12:32:47.592Z,9.37
2022-12-24T12:35:23.000Z,9.36
2022-12-24T12:37:58.426Z,9.31
2022-12-24T12:40:40.813Z,9.26
2022-12-24T12:43:17.624Z,9.20
2022-12-24T12:45:54.206Z,9.18
2022-12-24T12:48:41.132Z,9.11
2022-12-24T12:51:14.338Z,9.03
2022-12-24T12:54:02.751Z,8.98
2022-12-24T12:56:35.603Z,8.95
2022-12-24T12:59:09.803Z,8.91
2022-12-24T13:01:47.183Z,8.87
2022-12-24T13:05:03.776Z,8.85
2022-12-24T13:08:09.104Z,8.81
2022-12-24T13:11:04.299Z,8.73
2022-12-24T13:14:08.551Z,8.64
2022-12-24T13:17:14.950Z,8.54
2022-12-24T13:20:09.488Z,8.40
2022-12-24T13:22:37.801Z,8.30
2022-12-24T13:25:06.468Z,7.85
2022-12-24T13:27:36.208Z,7.51
2022-12-24T13:30:28.888Z,7.21
2022-12-24T13:32:57.025Z,7.03
2022-12-24T13:35:37.168Z,6.93
2022-12-24T13:38:49.776Z,6.87
2022-12-24T13:41:57.299Z,6.87
2022-12-24T13:44:34.834Z,6.86
2022-12-24T13:47:32.121Z,6.86
2022-12-24T13:50:15.720Z,6.84
2022-12-24T13:52:53.178Z,6.86
2022-12-24T13:55:22.101Z,6.93
2022-12-24T13:57:59.857Z,7.01
2022-12-24T14:00:40.226Z,7.10
2022-12-24T14:03:24.227Z,7.10
2022-12-24T14:05:56.528Z,7.03
2022-12-24T14:08:33.043Z,6.98
2022-12-24T14:11:06.452Z,6.96
2022-12-24T14:13:57.049Z,7.03
2022-12-24T14:16:27.900Z,7.06
2022-12-24T14:19:03.602Z,7.09
2022-12-24T14:21:35.869Z,7.06
2022-12-24T14:24:08.180Z,7.07
2022-12-24T14:26:45.003Z,7.10
2022-12-24T14:29:24.957Z,7.10
2022-12-24T14:31:54.123Z,7.08
2022-12-24T14:34:24.348Z,7.06
2022-12-24T14:36:53.745Z,7.07
2022-12-24T14:39:28.921Z,7.04
2022-12-24T14:42:09.108Z,7.02
2022-12-24T14:44:45.855Z,6.97
2022-12-24T14:47:32.046Z,6.97
2022-12-24T14:50:28.137Z,6.95
2022-12-24T14:53:09.320Z,6.94
2022-12-24T14:55:42.784Z,6.92
2022-12-24T14:58:24.179Z,6.91
2022-12-24T15:00:54.211Z,6.92
2022-12-24T15:03:24.410Z,6.90
2022-12-24T15:05:55.206Z,6.91
2022-12-24T15:08:29.778Z,6.87
2022-12-24T15:11:03.065Z,6.84
2022-12-24T15:13:37.176Z,6.82
2022-12-24T15:16:07.092Z,6.82
2022-12-24T15:18:38.489Z,6.83
2022-12-24T15:21:17.709Z,6.84
2022-12-24T15:23:49.146Z,6.85
2022-12-24T15:26:23.662Z,6.86
2022-12-24T15:29:02.390Z,6.84
2022-12-24T15:31:32.932Z,6.81
2022-12-24T15:34:03.661Z,6.82
2022-12-24T15:36:35.766Z,6.84
2022-12-24T15:39:07.703Z,6.83
2022-12-24T15:42:00.560Z,6.80
2022-12-24T15:44:31.351Z,6.73
2022-12-24T15:47:01.798Z,6.70
2022-12-24T15:49:32.564Z,6.69
2022-12-24T15:52:07.328Z,6.68
2022-12-24T15:54:36.311Z,6.66
2022-12-24T15:57:16.377Z,6.59
2022-12-24T15:59:44.704Z,6.51
2022-12-24T16:02:43.405Z,6.48
2022-12-24T16:05:31.303Z,6.46
2022-12-24T16:08:30.965Z,6.48
2022-12-24T16:11:16.105Z,6.50
2022-12-24T16:13:52.692Z,6.49
2022-12-24T16:16:23.676Z,6.49
2022-12-24T16:18:55.463Z,6.49
2022-12-24T16:21:27.633Z,6.48
2022-12-24T16:23:59.878Z,6.46
2022-12-24T16:26:28.060Z,6.42
2022-12-24T16:28:56.830Z,6.40
2022-12-24T16:31:31.419Z,6.37
2022-12-24T16:34:01.121Z,6.36
2022-12-24T16:36:29.290Z,6.35
2022-12-24T16:39:17.267Z,6.32
2022-12-24T16:42:04.116Z,6.27
2022-12-24T16:44:32.414Z,6.25
2022-12-24T16:47:01.605Z,6.26
2022-12-24T16:49:30.911Z,6.25
2022-12-24T16:51:59.849Z,6.28
2022-12-24T16:54:30.185Z,6.29
2022-12-24T16:56:59.698Z,6.25
2022-12-24T16:59:27.907Z,6.18
2022-12-24T17:01:56.304Z,6.13
2022-12-24T17:04:24.744Z,6.07
2022-12-24T17:06:53.520Z,5.96
2022-12-24T17:09:22.299Z,5.89
2022-12-24T17:11:52.474Z,5.91
2022-12-24T17:14:21.071Z,5.97
2022-12-24T17:16:49.459Z,6.02
2022-12-24T17:19:20.432Z,6.05
2022-12-24T17:21:49.433Z,6.06
2022-12-24T17:24:17.883Z,6.03
2022-12-24T17:26:46.609Z,6.03
2022-12-24T17:29:16.123Z,6.02
2022-12-24T17:31:44.583Z,6.03
2022-12-24T17:34:12.729Z,6.02
2022-12-24T17:36:41.039Z,6.00
2022-12-24T17:39:09.221Z,6.00
2022-12-24T17:41:45.924Z,6.01
2022-12-24T17:44:15.994Z,6.03
2022-12-24T17:46:44.261Z,6.03
2022-12-24T17:49:13.509Z,5.99
2022-12-24T17:51:45.641Z,5.95
2022-12-24T17:54:14.610Z,5.88
2022-12-24T17:56:42.657Z,5.81
2022-12-24T17:59:11.007Z,5.75
2022-12-24T18:01:40.619Z,5.69
2022-12-24T18:04:09.000Z,5.64
2022-12-24T18:06:37.166Z,5.61
2022-12-24T18:09:05.705Z,5.58
2022-12-24T18:11:36.161Z,5.54
2022-12-24T18:14:05.677Z,5.50
2022-12-24T18:16:37.107Z,5.47
2022-12-24T18:19:10.486Z,5.43
2022-12-24T18:21:38.791Z,5.38
2022-12-24T18:24:07.715Z,5.35
2022-12-24T18:26:36.206Z,5.30
2022-12-24T18:29:05.846Z,5.27
2022-12-24T18:31:38.582Z,5.22
2022-12-24T18:34:10.567Z,5.18
2022-12-24T18:36:38.953Z,5.13
2022-12-24T18:39:07.407Z,5.10
2022-12-24T18:41:36.261Z,5.07
2022-12-24T18:44:04.586Z,5.06
2022-12-24T18:46:35.131Z,5.05
2022-12-24T18:49:03.654Z,5.06
2022-12-24T18:51:35.506Z,5.17
2022-12-24T18:54:03.902Z,5.25
2022-12-24T18:56:32.572Z,5.29
2022-12-24T18:59:02.321Z,5.32
2022-12-24T19:01:32.541Z,5.29
2022-12-24T19:04:01.553Z,5.22
2022-12-24T19:06:30.414Z,5.15
2022-12-24T19:09:01.466Z,5.12
2022-12-24T19:11:32.456Z,5.13
2022-12-24T19:14:01.716Z,5.13
2022-12-24T19:16:31.817Z,5.12
2022-12-24T19:18:59.675Z,5.14
2022-12-24T19:21:28.162Z,5.10
2022-12-24T19:23:56.449Z,5.08
2022-12-24T19:26:26.063Z,5.10
2022-12-24T19:28:54.869Z,5.10
2022-12-24T19:31:24.962Z,5.06
2022-12-24T19:33:56.462Z,5.09
2022-12-24T19:36:27.004Z,5.10
2022-12-24T19:38:55.749Z,5.05
2022-12-24T19:41:27.862Z,5.01
2022-12-24T19:43:57.279Z,5.00
2022-12-24T19:46:27.815Z,4.98
2022-12-24T19:48:57.924Z,5.00
2022-12-24T19:51:27.445Z,5.02
2022-12-24T19:53:56.386Z,5.00
2022-12-24T19:56:27.090Z,4.98
2022-12-24T19:58:57.576Z,4.96
2022-12-24T20:01:27.885Z,4.96
2022-12-24T20:03:56.761Z,4.94
2022-12-24T20:06:27.341Z,4.94
2022-12-24T20:09:00.202Z,4.97
2022-12-24T20:11:30.387Z,4.94
2022-12-24T20:13:59.749Z,5.02
2022-12-24T20:16:29.722Z,5.11
2022-12-24T20:19:00.267Z,5.16
2022-12-24T20:21:29.306Z,5.15
2022-12-24T20:23:57.809Z,5.12
2022-12-24T20:26:28.370Z,5.14
2022-12-24T20:28:58.096Z,5.14
2022-12-24T20:31:30.343Z,5.15
2022-12-24T20:34:01.500Z,5.18
2022-12-24T20:36:31.244Z,5.16
2022-12-24T20:39:01.229Z,5.16
2022-12-24T20:41:31.370Z,5.16
2022-12-24T20:44:01.050Z,5.18
2022-12-24T20:46:32.166Z,5.23
2022-12-24T20:49:00.267Z,5.22
2022-12-24T20:51:29.164Z,5.18
2022-12-24T20:53:59.248Z,5.20
2022-12-24T20:56:27.677Z,5.21
2022-12-24T20:58:58.718Z,5.19
2022-12-24T21:01:28.565Z,5.23
2022-12-24T21:04:00.312Z,5.29
2022-12-24T21:06:28.596Z,5.34
2022-12-24T21:08:56.667Z,5.33
2022-12-24T21:11:42.293Z,5.34
2022-12-24T21:14:11.049Z,5.31
2022-12-24T21:16:44.355Z,5.34
2022-12-24T21:19:17.089Z,5.30
2022-12-24T21:21:45.550Z,5.30
2022-12-24T21:24:13.668Z,5.32
2022-12-24T21:26:41.904Z,5.26
2022-12-24T21:29:10.553Z,5.21
2022-12-24T21:31:40.455Z,5.19
2022-12-24T21:34:10.930Z,5.16
2022-12-24T21:36:39.046Z,5.13
2022-12-24T21:39:07.092Z,5.09
2022-12-24T21:41:35.198Z,5.04
2022-12-24T21:44:03.839Z,5.02
2022-12-24T21:46:32.337Z,5.03
2022-12-24T21:49:19.451Z,5.00
2022-12-24T21:51:49.105Z,4.95
2022-12-24T21:54:28.727Z,4.90
2022-12-24T21:57:16.358Z,4.86
2022-12-24T21:59:46.129Z,4.82
2022-12-24T22:02:15.886Z,4.78
2022-12-24T22:04:45.944Z,4.80
2022-12-24T22:07:40.884Z,4.80
2022-12-24T22:10:27.445Z,4.83
2022-12-24T22:12:56.263Z,4.87
2022-12-24T22:15:24.443Z,4.88
2022-12-24T22:17:53.976Z,4.90
2022-12-24T22:20:24.794Z,4.91
2022-12-24T22:22:52.920Z,4.92
2022-12-24T22:25:20.998Z,4.94
2022-12-24T22:27:49.008Z,5.00
2022-12-24T22:30:17.354Z,5.02
2022-12-24T22:32:45.722Z,5.02
2022-12-24T22:35:14.555Z,5.17
2022-12-24T22:37:44.795Z,5.31
2022-12-24T22:40:15.720Z,5.33
2022-12-24T22:42:46.642Z,5.34
2022-12-24T22:45:27.943Z,5.42
2022-12-24T22:48:30.850Z,5.43
2022-12-24T22:51:29.178Z,5.49
2022-12-24T22:54:02.136Z,5.52
2022-12-24T22:56:41.529Z,5.57
2022-12-24T22:59:26.671Z,5.63
2022-12-24T23:02:06.143Z,5.66
2022-12-24T23:05:14.652Z,5.65
2022-12-24T23:08:17.199Z,5.77
2022-12-24T23:11:03.060Z,5.84
2022-12-24T23:14:04.733Z,5.87
2022-12-24T23:17:13.738Z,5.93
2022-12-24T23:19:58.247Z,5.94
2022-12-24T23:22:58.180Z,5.95
2022-12-24T23:25:26.831Z,5.96
2022-12-24T23:27:56.557Z,5.94
2022-12-24T23:30:25.291Z,5.91
2022-12-24T23:32:53.463Z,5.88
2022-12-24T23:35:21.917Z,5.80
2022-12-24T23:37:51.690Z,5.77
2022-12-24T23:40:20.104Z,5.94
2022-12-24T23:42:49.366Z,6.02
2022-12-24T23:45:20.405Z,6.05
2022-12-24T23:47:48.426Z,6.06
2022-12-24T23:50:16.587Z,6.13
2022-12-24T23:52:44.668Z,6.16
2022-12-24T23:55:12.754Z,6.24
2022-12-24T23:57:40.870Z,6.27
